Observation data for Friona on 01/13/2021      Previous  Date  Next       Current Mesonet Observations  Soil Data  Daily Summary Page  Observations in Plain Language
KFAS 130600Z 25006KT M05/M06 A3017 RMK A01 T10481064  RH  088%=      5-min Rain = 0
KFAS 130605Z 25006KT M05/M06 A3017 RMK A01 T10481064  RH  089%=      5-min Rain = 0
KFAS 130610Z 25007KT M05/M06 A3017 RMK A01 T10461061  RH  090%=      5-min Rain = 0
KFAS 130615Z 24008KT M04/M06 A3017 RMK A01 T10411057  RH  089%=      5-min Rain = 0
KFAS 130620Z 24009KT M03/M05 A3016 RMK A01 T10321050  RH  087%=      5-min Rain = 0
KFAS 130625Z 25009KT M03/M05 A3016 RMK A01 T10261050  RH  084%=      5-min Rain = 0
KFAS 130630Z 25008KT M03/M05 A3017 RMK A01 T10251052  RH  082%=      5-min Rain = 0
KFAS 130635Z 24009KT M02/M05 A3017 RMK A01 T10211049  RH  081%=      5-min Rain = 0
KFAS 130640Z 24008KT M02/M05 A3017 RMK A01 T10211051  RH  080%=      5-min Rain = 0
KFAS 130645Z 24008KT M02/M05 A3017 RMK A01 T10191051  RH  079%=      5-min Rain = 0
KFAS 130650Z 25008KT M02/M05 A3017 RMK A01 T10211052  RH  080%=      5-min Rain = 0
KFAS 130655Z 25007KT M02/M05 A3017 RMK A01 T10241054  RH  080%=      5-min Rain = 0
KFAS 130700Z 25008KT M03/M06 A3017 RMK A01 T10261055  RH  081%=      5-min Rain = 0
KFAS 130705Z 25007KT M03/M06 A3017 RMK A01 T10291056  RH  082%=      5-min Rain = 0
KFAS 130710Z 25007KT M03/M06 A3017 RMK A01 T10311057  RH  082%=      5-min Rain = 0
KFAS 130715Z 25007KT M03/M06 A3017 RMK A01 T10301057  RH  082%=      5-min Rain = 0
KFAS 130720Z 26008KT M03/M05 A3017 RMK A01 T10261053  RH  082%=      5-min Rain = 0
KFAS 130725Z 27007KT M03/M05 A3017 RMK A01 T10261054  RH  082%=      5-min Rain = 0
KFAS 130730Z 26008KT M03/M05 A3016 RMK A01 T10271053  RH  082%=      5-min Rain = 0
KFAS 130735Z 26008KT M03/M05 A3016 RMK A01 T10261052  RH  082%=      5-min Rain = 0
KFAS 130740Z 26008KT M03/M05 A3016 RMK A01 T10251052  RH  082%=      5-min Rain = 0
KFAS 130745Z 26008KT M03/M05 A3016 RMK A01 T10271054  RH  082%=      5-min Rain = 0
KFAS 130750Z 26008KT M03/M05 A3016 RMK A01 T10281054  RH  083%=      5-min Rain = 0
KFAS 130755Z 25008KT M03/M06 A3016 RMK A01 T10301055  RH  083%=      5-min Rain = 0
KFAS 130800Z 26009KT M03/M05 A3016 RMK A01 T10291054  RH  083%=      5-min Rain = 0
KFAS 130805Z 25010KT M03/M05 A3015 RMK A01 T10281054  RH  083%=      5-min Rain = 0
KFAS 130810Z 25011KT M03/M05 A3015 RMK A01 T10261053  RH  082%=      5-min Rain = 0
KFAS 130815Z 25012KT M02/M05 A3015 RMK A01 T10241053  RH  081%=      5-min Rain = 0
KFAS 130820Z 25012KT M02/M05 A3015 RMK A01 T10241053  RH  081%=      5-min Rain = 0
KFAS 130825Z 25011KT M03/M06 A3014 RMK A01 T10271055  RH  081%=      5-min Rain = 0
KFAS 130830Z 25010KT M03/M06 A3014 RMK A01 T10291056  RH  082%=      5-min Rain = 0
KFAS 130835Z 26009KT M03/M06 A3014 RMK A01 T10301056  RH  082%=      5-min Rain = 0
KFAS 130840Z 26008KT M03/M06 A3014 RMK A01 T10331059  RH  082%=      5-min Rain = 0
KFAS 130845Z 26008KT M04/M06 A3013 RMK A01 T10371062  RH  083%=      5-min Rain = 0
KFAS 130850Z 25009KT M04/M06 A3013 RMK A01 T10381062  RH  083%=      5-min Rain = 0
KFAS 130855Z 24009KT M04/M06 A3013 RMK A01 T10381062  RH  083%=      5-min Rain = 0
KFAS 130900Z 24009KT M04/M06 A3012 RMK A01 T10371061  RH  083%=      5-min Rain = 0
KFAS 130905Z 24009KT M04/M06 A3012 RMK A01 T10371062  RH  083%=      5-min Rain = 0
KFAS 130910Z 25009KT M04/M06 A3012 RMK A01 T10371062  RH  083%=      5-min Rain = 0
KFAS 130915Z 25011KT M04/M06 A3012 RMK A01 T10361061  RH  083%=      5-min Rain = 0
KFAS 130920Z 25011KT M04/M06 A3012 RMK A01 T10351061  RH  083%=      5-min Rain = 0
KFAS 130925Z 25011KT M04/M06 A3012 RMK A01 T10351060  RH  083%=      5-min Rain = 0
KFAS 130930Z 24012KT M03/M06 A3011 RMK A01 T10331059  RH  082%=      5-min Rain = 0
KFAS 130935Z 24012KT M03/M06 A3011 RMK A01 T10321059  RH  082%=      5-min Rain = 0
KFAS 130940Z 25011KT M03/M06 A301 RMK A01 T10341061  RH  082%=      5-min Rain = 0
KFAS 130945Z 25011KT M04/M06 A301 RMK A01 T10371063  RH  082%=      5-min Rain = 0
KFAS 130950Z 25010KT M04/M07 A301 RMK A01 T10401065  RH  083%=      5-min Rain = 0
KFAS 130955Z 25009KT M04/M07 A301 RMK A01 T10431066  RH  084%=      5-min Rain = 0
KFAS 131000Z 25009KT M05/M07 A301 RMK A01 T10451067  RH  085%=      5-min Rain = 0
KFAS 131005Z 25011KT M05/M07 A301 RMK A01 T10461067  RH  085%=      5-min Rain = 0
KFAS 131010Z 25011KT M05/M07 A3009 RMK A01 T10451068  RH  085%=      5-min Rain = 0
KFAS 131015Z 25011KT M05/M07 A3009 RMK A01 T10471069  RH  084%=      5-min Rain = 0
KFAS 131020Z 26009KT M05/M07 A3009 RMK A01 T10501072  RH  085%=      5-min Rain = 0
KFAS 131025Z 27007KT M06/M08 A3009 RMK A01 T10551076  RH  085%=      5-min Rain = 0
KFAS 131030Z 26006KT M06/M08 A3009 RMK A01 T10621081  RH  086%=      5-min Rain = 0
KFAS 131035Z 26007KT M07/M08 A3009 RMK A01 T10661084  RH  087%=      5-min Rain = 0
KFAS 131040Z 26006KT M07/M09 A3009 RMK A01 T10681085  RH  088%=      5-min Rain = 0
KFAS 131045Z 26007KT M07/M09 A3009 RMK A01 T10711087  RH  088%=      5-min Rain = 0
KFAS 131050Z 26007KT M07/M09 A3008 RMK A01 T10701085  RH  089%=      5-min Rain = 0
KFAS 131055Z 27006KT M07/M08 A3009 RMK A01 T10681084  RH  088%=      5-min Rain = 0
KFAS 131100Z 27007KT M07/M09 A3008 RMK A01 T10681085  RH  088%=      5-min Rain = 0
KFAS 131105Z 26007KT M07/M09 A3008 RMK A01 T10671085  RH  087%=      5-min Rain = 0
KFAS 131110Z 26008KT M07/M09 A3008 RMK A01 T10691087  RH  087%=      5-min Rain = 0
KFAS 131115Z 25010KT M07/M09 A3008 RMK A01 T10681086  RH  087%=      5-min Rain = 0
KFAS 131120Z 26011KT M07/M08 A3008 RMK A01 T10651084  RH  086%=      5-min Rain = 0
KFAS 131125Z 26011KT M06/M08 A3007 RMK A01 T10621084  RH  084%=      5-min Rain = 0
KFAS 131130Z 26013KT M06/M08 A3007 RMK A01 T10601083  RH  084%=      5-min Rain = 0
KFAS 131135Z 26013KT M06/M08 A3007 RMK A01 T10591083  RH  083%=      5-min Rain = 0
KFAS 131140Z 26013KT M06/M08 A3006 RMK A01 T10581083  RH  082%=      5-min Rain = 0
KFAS 131145Z 25013KT M06/M09 A3006 RMK A01 T10601085  RH  082%=      5-min Rain = 0
KFAS 131150Z 25013KT M06/M09 A3006 RMK A01 T10601085  RH  083%=      5-min Rain = 0
KFAS 131155Z 25014KT M06/M08 A3005 RMK A01 T10581084  RH  082%=      5-min Rain = 0
KFAS 131200Z 25014KT M06/M08 A3005 RMK A01 T10561084  RH  081%=      5-min Rain = 0
KFAS 131205Z 26015KT M05/M08 A3005 RMK A01 T10531082  RH  081%=      5-min Rain = 0
KFAS 131210Z 26015KT M05/M08 A3005 RMK A01 T10491081  RH  078%=      5-min Rain = 0
KFAS 131215Z 26013KT M05/M08 A3006 RMK A01 T10501082  RH  078%=      5-min Rain = 0
KFAS 131220Z 26013KT M05/M08 A3006 RMK A01 T10511084  RH  078%=      5-min Rain = 0
KFAS 131225Z 26011KT M05/M09 A3006 RMK A01 T10541085  RH  079%=      5-min Rain = 0
KFAS 131230Z 27010KT M06/M09 A3006 RMK A01 T10581088  RH  080%=      5-min Rain = 0
KFAS 131235Z 26010KT M06/M09 A3006 RMK A01 T10621090  RH  081%=      5-min Rain = 0
KFAS 131240Z 26010KT M07/M09 A3006 RMK A01 T10661091  RH  082%=      5-min Rain = 0
KFAS 131245Z 26010KT M07/M09 A3006 RMK A01 T10681092  RH  082%=      5-min Rain = 0
KFAS 131250Z 27008KT M07/M09 A3006 RMK A01 T10691093  RH  083%=      5-min Rain = 0
KFAS 131255Z 27008KT M07/M10 A3006 RMK A01 T10701095  RH  083%=      5-min Rain = 0
KFAS 131300Z 27008KT M07/M10 A3006 RMK A01 T10721095  RH  083%=      5-min Rain = 0
KFAS 131305Z 27008KT M07/M10 A3006 RMK A01 T10731096  RH  083%=      5-min Rain = 0
KFAS 131310Z 26008KT M07/M10 A3006 RMK A01 T10721096  RH  083%=      5-min Rain = 0
KFAS 131315Z 25008KT M08/M10 A3006 RMK A01 T10771100  RH  083%=      5-min Rain = 0
KFAS 131320Z 25008KT M08/M10 A3006 RMK A01 T10801101  RH  084%=      5-min Rain = 0
KFAS 131325Z 24009KT M08/M10 A3005 RMK A01 T10771098  RH  085%=      5-min Rain = 0
KFAS 131330Z 24008KT M08/M10 A3005 RMK A01 T10781099  RH  084%=      5-min Rain = 0
KFAS 131335Z 25007KT M08/M10 A3005 RMK A01 T10761097  RH  085%=      5-min Rain = 0
KFAS 131340Z 26007KT M07/M10 A3005 RMK A01 T10731095  RH  084%=      5-min Rain = 0
KFAS 131345Z 25008KT M07/M09 A3005 RMK A01 T10711094  RH  083%=      5-min Rain = 0
KFAS 131350Z 26008KT M07/M09 A3005 RMK A01 T10681091  RH  083%=      5-min Rain = 0
KFAS 131355Z 25008KT M07/M09 A3005 RMK A01 T10671093  RH  082%=      5-min Rain = 0
KFAS 131400Z 24009KT M07/M09 A3004 RMK A01 T10681092  RH  083%=      5-min Rain = 0
KFAS 131405Z 24009KT M06/M09 A3004 RMK A01 T10631088  RH  082%=      5-min Rain = 0
KFAS 131410Z 25009KT M06/M09 A3004 RMK A01 T10581086  RH  080%=      5-min Rain = 0
KFAS 131415Z 24009KT M06/M09 A3004 RMK A01 T10571085  RH  080%=      5-min Rain = 0
KFAS 131420Z 23009KT M06/M08 A3004 RMK A01 T10551083  RH  080%=      5-min Rain = 0
KFAS 131425Z 24011KT M05/M08 A3004 RMK A01 T10541083  RH  080%=      5-min Rain = 0
KFAS 131430Z 24011KT M05/M08 A3004 RMK A01 T10521082  RH  079%=      5-min Rain = 0
KFAS 131435Z 24011KT M05/M08 A3004 RMK A01 T10491081  RH  078%=      5-min Rain = 0
KFAS 131440Z 23012KT M05/M08 A3004 RMK A01 T10461078  RH  078%=      5-min Rain = 0
KFAS 131445Z 24013KT M04/M08 A3004 RMK A01 T10441078  RH  077%=      5-min Rain = 0
KFAS 131450Z 25012KT M04/M08 A3004 RMK A01 T10431076  RH  078%=      5-min Rain = 0
KFAS 131455Z 25014KT M04/M07 A3004 RMK A01 T10411074  RH  078%=      5-min Rain = 0
KFAS 131500Z 25014KT M04/M07 A3004 RMK A01 T10401073  RH  077%=      5-min Rain = 0
KFAS 131505Z 25014KT M04/M07 A3004 RMK A01 T10391073  RH  077%=      5-min Rain = 0
KFAS 131510Z 26015KT M04/M07 A3004 RMK A01 T10381072  RH  078%=      5-min Rain = 0
KFAS 131515Z 26015KT M04/M07 A3004 RMK A01 T10361069  RH  078%=      5-min Rain = 0
KFAS 131520Z 25013KT M03/M07 A3005 RMK A01 T10331068  RH  077%=      5-min Rain = 0
KFAS 131525Z 26012KT M03/M06 A3005 RMK A01 T10291064  RH  077%=      5-min Rain = 0
KFAS 131530Z 26013KT M03/M07 A3005 RMK A01 T10281065  RH  076%=      5-min Rain = 0
KFAS 131535Z 26013KT M03/M06 A3005 RMK A01 T10281064  RH  076%=      5-min Rain = 0
KFAS 131540Z 25013KT M03/M06 A3005 RMK A01 T10271062  RH  077%=      5-min Rain = 0
KFAS 131545Z 25013KT M03/M06 A3005 RMK A01 T10251060  RH  077%=      5-min Rain = 0
KFAS 131550Z 26013KT M03/M06 A3005 RMK A01 T10251061  RH  076%=      5-min Rain = 0
KFAS 131555Z 26013KT M02/M06 A3004 RMK A01 T10231060  RH  076%=      5-min Rain = 0
KFAS 131600Z 25013KT M02/M06 A3004 RMK A01 T10201057  RH  076%=      5-min Rain = 0
KFAS 131605Z 26012KT M02/M06 A3005 RMK A01 T10191056  RH  076%=      5-min Rain = 0
KFAS 131610Z 26013KT M01/M05 A3005 RMK A01 T10131052  RH  075%=      5-min Rain = 0
KFAS 131615Z 25014KT M01/M05 A3005 RMK A01 T10081048  RH  075%=      5-min Rain = 0
KFAS 131620Z 25015KT M01/M05 A3005 RMK A01 T10051047  RH  074%=      5-min Rain = 0
KFAS 131625Z 25012KT 00/04 A3005 RMK A01 T00-00-43  RH  074%=      5-min Rain = 0
KFAS 131630Z 26011KT 00/M04 A3006 RMK A01 T00041041  RH  072%=      5-min Rain = 0
KFAS 131635Z 26011KT 01/M04 A3006 RMK A01 T00071039  RH  072%=      5-min Rain = 0
KFAS 131640Z 26009KT 01/M03 A3006 RMK A01 T00121032  RH  073%=      5-min Rain = 0
KFAS 131645Z 26010KT 02/M03 A3005 RMK A01 T00151034  RH  070%=      5-min Rain = 0
KFAS 131650Z 26009KT 02/M03 A3005 RMK A01 T00201030  RH  070%=      5-min Rain = 0
KFAS 131655Z 26010KT 02/M03 A3004 RMK A01 T00231028  RH  069%=      5-min Rain = 0
KFAS 131700Z 26011KT 03/M03 A3004 RMK A01 T00281025  RH  068%=      5-min Rain = 0
KFAS 131705Z 27010KT 03/M03 A3004 RMK A01 T00341025  RH  066%=      5-min Rain = 0
KFAS 131710Z 26009KT 04/M02 A3004 RMK A01 T00411018  RH  066%=      5-min Rain = 0
KFAS 131715Z 26008KT 04/M02 A3004 RMK A01 T00441020  RH  064%=      5-min Rain = 0
KFAS 131720Z 26007KT 05/M02 A3003 RMK A01 T00451021  RH  063%=      5-min Rain = 0
KFAS 131725Z 26008KT 05/M02 A3003 RMK A01 T00461018  RH  063%=      5-min Rain = 0
KFAS 131730Z 26008KT 05/M01 A3003 RMK A01 T00541013  RH  062%=      5-min Rain = 0
KFAS 131735Z 26009KT 06/M01 A3003 RMK A01 T00641009  RH  060%=      5-min Rain = 0
KFAS 131740Z 26009KT 07/M01 A3002 RMK A01 T00651010  RH  059%=      5-min Rain = 0
KFAS 131745Z 27007KT 07/M01 A3002 RMK A01 T00721008  RH  058%=      5-min Rain = 0
KFAS 131750Z 26007KT 08/M01 A3002 RMK A01 T00771006  RH  056%=      5-min Rain = 0
KFAS 131755Z 27007KT 08/M01 A3002 RMK A01 T00831005  RH  054%=      5-min Rain = 0
KFAS 131800Z 26008KT 09/M00 A3001 RMK A01 T00911004  RH  052%=      5-min Rain = 0
KFAS 131805Z 25007KT 10/M00 A3001 RMK A01 T00961003  RH  051%=      5-min Rain = 0
KFAS 131810Z 25008KT 10/M00 A3001 RMK A01 T01041003  RH  048%=      5-min Rain = 0
KFAS 131815Z 24008KT 11/M01 A30 RMK A01 T01071005  RH  047%=      5-min Rain = 0
KFAS 131820Z 25008KT 11/M01 A2999 RMK A01 T01101006  RH  045%=      5-min Rain = 0
KFAS 131825Z 25008KT 11/M01 A2999 RMK A01 T01111009  RH  044%=      5-min Rain = 0
KFAS 131830Z 25007KT 12/M01 A2998 RMK A01 T01161011  RH  042%=      5-min Rain = 0
KFAS 131835Z 25008KT 12/M01 A2998 RMK A01 T01201011  RH  041%=      5-min Rain = 0
KFAS 131840Z 25008KT 13/M01 A2998 RMK A01 T01251009  RH  040%=      5-min Rain = 0
KFAS 131845Z 24009KT 13/M01 A2997 RMK A01 T01271010  RH  039%=      5-min Rain = 0
KFAS 131850Z 25009KT 13/M01 A2997 RMK A01 T01311008  RH  039%=      5-min Rain = 0
KFAS 131855Z 24010KT 14/M01 A2997 RMK A01 T01351008  RH  038%=      5-min Rain = 0
KFAS 131900Z 25008KT 14/M01 A2996 RMK A01 T01401009  RH  036%=      5-min Rain = 0
KFAS 131905Z 25008KT 14/M01 A2996 RMK A01 T01421012  RH  035%=      5-min Rain = 0
KFAS 131910Z 24009KT 15/M01 A2995 RMK A01 T01461014  RH  034%=      5-min Rain = 0
KFAS 131915Z 25009KT 15/M02 A2995 RMK A01 T01481015  RH  033%=      5-min Rain = 0
KFAS 131920Z 25009KT 15/M02 A2995 RMK A01 T01491016  RH  032%=      5-min Rain = 0
KFAS 131925Z 24009KT 15/M02 A2995 RMK A01 T01511018  RH  031%=      5-min Rain = 0
KFAS 131930Z 24009KT 15/M02 A2994 RMK A01 T01541020  RH  030%=      5-min Rain = 0
KFAS 131935Z 24008KT 16/M02 A2994 RMK A01 T01581019  RH  030%=      5-min Rain = 0
KFAS 131940Z 24008KT 16/M02 A2993 RMK A01 T01621020  RH  029%=      5-min Rain = 0
KFAS 131945Z 24009KT 17/M02 A2993 RMK A01 T01661021  RH  028%=      5-min Rain = 0
KFAS 131950Z 24009KT 17/M02 A2993 RMK A01 T01691022  RH  027%=      5-min Rain = 0
KFAS 131955Z 25009KT 17/M02 A2993 RMK A01 T01721023  RH  026%=      5-min Rain = 0
KFAS 132000Z 25010KT 17/M02 A2993 RMK A01 T01731023  RH  026%=      5-min Rain = 0
KFAS 132005Z 25010KT 18/M02 A2993 RMK A01 T01771021  RH  026%=      5-min Rain = 0
KFAS 132010Z 25009KT 18/M03 A2992 RMK A01 T01761025  RH  025%=      5-min Rain = 0
KFAS 132015Z 25009KT 18/M03 A2992 RMK A01 T01781026  RH  025%=      5-min Rain = 0
KFAS 132020Z 25009KT 18/M03 A2992 RMK A01 T01811028  RH  024%=      5-min Rain = 0
KFAS 132025Z 24009KT 18/M02 A2992 RMK A01 T01811024  RH  025%=      5-min Rain = 0
KFAS 132030Z 24010KT 18/M01 A2992 RMK A01 T01761012  RH  028%=      5-min Rain = 0
KFAS 132035Z 23010KT 18/M01 A2992 RMK A01 T01781013  RH  028%=      5-min Rain = 0
KFAS 132040Z 23010KT 18/M01 A2992 RMK A01 T01811010  RH  028%=      5-min Rain = 0
KFAS 132045Z 24008KT 19/M03 A2991 RMK A01 T01851026  RH  024%=      5-min Rain = 0
KFAS 132050Z 25007KT 19/M05 A2991 RMK A01 T01911050  RH  019%=      5-min Rain = 0
KFAS 132055Z 28006KT 19/M06 A2991 RMK A01 T01911058  RH  018%=      5-min Rain = 0
KFAS 132100Z 30006KT 19/M07 A2991 RMK A01 T01921066  RH  017%=      5-min Rain = 0
KFAS 132105Z 30007KT 19/M06 A2991 RMK A01 T01921064  RH  017%=      5-min Rain = 0
KFAS 132110Z 32006KT 20/M06 A2991 RMK A01 T01961059  RH  017%=      5-min Rain = 0
KFAS 132115Z 31006KT 20/M05 A2991 RMK A01 T01991051  RH  018%=      5-min Rain = 0
KFAS 132120Z 31008G13KT 20/M05 A299 RMK A01 T01951048  RH  019%=      5-min Rain = 0
KFAS 132125Z 32008KT 19/M05 A299 RMK A01 T01941048  RH  019%=      5-min Rain = 0
KFAS 132130Z 30007G13KT 20/M05 A299 RMK A01 T01951051  RH  019%=      5-min Rain = 0
KFAS 132135Z 30009KT 20/M04 A299 RMK A01 T01951044  RH  020%=      5-min Rain = 0
KFAS 132140Z 31006G11KT 19/M05 A299 RMK A01 T01941049  RH  019%=      5-min Rain = 0
KFAS 132145Z 33009KT 19/M06 A299 RMK A01 T01921056  RH  018%=      5-min Rain = 0
KFAS 132150Z 34008KT 19/M06 A299 RMK A01 T01901058  RH  018%=      5-min Rain = 0
KFAS 132155Z 34008KT 19/M06 A299 RMK A01 T01881060  RH  018%=      5-min Rain = 0
KFAS 132200Z 33006KT 19/M06 A2989 RMK A01 T01861063  RH  018%=      5-min Rain = 0
KFAS 132205Z 33006KT 19/M06 A2989 RMK A01 T01861059  RH  018%=      5-min Rain = 0
KFAS 132210Z 35006KT 19/M06 A2989 RMK A01 T01851064  RH  018%=      5-min Rain = 0
KFAS 132215Z 34006KT 19/M06 A2989 RMK A01 T01861064  RH  018%=      5-min Rain = 0
KFAS 132220Z 34007KT 19/M07 A2989 RMK A01 T01871065  RH  017%=      5-min Rain = 0
KFAS 132225Z 34006KT 19/M06 A2989 RMK A01 T01881059  RH  018%=      5-min Rain = 0
KFAS 132230Z 34005KT 19/M07 A2989 RMK A01 T01881066  RH  017%=      5-min Rain = 0
KFAS 132235Z 35005KT 19/M07 A2988 RMK A01 T01861068  RH  017%=      5-min Rain = 0
KFAS 132240Z 35005KT 19/M06 A2988 RMK A01 T01871063  RH  018%=      5-min Rain = 0
KFAS 132245Z 34005KT 19/M06 A2988 RMK A01 T01871064  RH  018%=      5-min Rain = 0
KFAS 132250Z 34004KT 19/M07 A2988 RMK A01 T01861067  RH  017%=      5-min Rain = 0
KFAS 132255Z 34003KT 19/M06 A2989 RMK A01 T01871062  RH  018%=      5-min Rain = 0
KFAS 132300Z 34004KT 19/M06 A2989 RMK A01 T01851064  RH  018%=      5-min Rain = 0
KFAS 132305Z 34004KT 18/M06 A2989 RMK A01 T01831055  RH  019%=      5-min Rain = 0
KFAS 132310Z 34003KT 18/M05 A2989 RMK A01 T01811051  RH  020%=      5-min Rain = 0
KFAS 132315Z 33002KT 18/M04 A2989 RMK A01 T01801044  RH  022%=      5-min Rain = 0
KFAS 132320Z 33002KT 18/M04 A299 RMK A01 T01761039  RH  023%=      5-min Rain = 0
KFAS 132325Z 34003KT 17/M03 A299 RMK A01 T01721034  RH  024%=      5-min Rain = 0
KFAS 132330Z 34002KT 17/M03 A299 RMK A01 T01701030  RH  025%=      5-min Rain = 0
KFAS 132335Z 33001KT 17/M03 A299 RMK A01 T01691026  RH  026%=      5-min Rain = 0
KFAS 132340Z 32000KT 17/M02 A299 RMK A01 T01691023  RH  027%=      5-min Rain = 0
KFAS 132345Z 23000KT 16/M02 A299 RMK A01 T01611023  RH  028%=      5-min Rain = 0
KFAS 132350Z 21003KT 16/M03 A299 RMK A01 T01551027  RH  029%=      5-min Rain = 0
KFAS 132355Z 22005KT 13/M02 A299 RMK A01 T01331015  RH  036%=      5-min Rain = 0
KFAS 140000Z 22009KT 12/M00 A2989 RMK A01 T01211003  RH  043%=      5-min Rain = 0
KFAS 140005Z 22008KT 11/M00 A2989 RMK A01 T01101003  RH  046%=      5-min Rain = 0
KFAS 140010Z 20007KT 10/M01 A2989 RMK A01 T00961005  RH  050%=      5-min Rain = 0
KFAS 140015Z 20007KT 09/M00 A2989 RMK A01 T00871003  RH  054%=      5-min Rain = 0
KFAS 140020Z 21008KT 09/00 A299 RMK A01 T00860001  RH  056%=      5-min Rain = 0
KFAS 140025Z 22008KT 08/M00 A299 RMK A01 T00781002  RH  057%=      5-min Rain = 0
KFAS 140030Z 21009KT 08/M00 A299 RMK A01 T00781003  RH  057%=      5-min Rain = 0
KFAS 140035Z 21008KT 08/M00 A299 RMK A01 T00781004  RH  057%=      5-min Rain = 0
KFAS 140040Z 21008KT 07/M00 A299 RMK A01 T00721004  RH  059%=      5-min Rain = 0
KFAS 140045Z 22008KT 07/M00 A299 RMK A01 T00681004  RH  061%=      5-min Rain = 0
KFAS 140050Z 22009KT 07/M00 A299 RMK A01 T00721003  RH  060%=      5-min Rain = 0
KFAS 140055Z 22008KT 07/M01 A299 RMK A01 T00671006  RH  060%=      5-min Rain = 0
KFAS 140100Z 24007KT 06/M01 A299 RMK A01 T00631009  RH  061%=      5-min Rain = 0
KFAS 140105Z 24008KT 08/M01 A299 RMK A01 T00771008  RH  056%=      5-min Rain = 0
KFAS 140110Z 23009KT 08/M01 A299 RMK A01 T00781012  RH  054%=      5-min Rain = 0
KFAS 140115Z 23008KT 06/M02 A299 RMK A01 T00621016  RH  058%=      5-min Rain = 0
KFAS 140120Z 23007KT 06/M02 A299 RMK A01 T00641015  RH  058%=      5-min Rain = 0
KFAS 140125Z 22005KT 05/M01 A299 RMK A01 T00501014  RH  064%=      5-min Rain = 0
KFAS 140130Z 22006KT 05/M01 A2989 RMK A01 T00491010  RH  066%=      5-min Rain = 0
KFAS 140135Z 22004KT 06/M01 A2989 RMK A01 T00571010  RH  062%=      5-min Rain = 0
KFAS 140140Z 23002KT 06/M01 A2989 RMK A01 T00571014  RH  061%=      5-min Rain = 0
KFAS 140145Z 22004KT 05/M02 A2989 RMK A01 T00521016  RH  062%=      5-min Rain = 0
KFAS 140150Z 22008KT 04/M02 A2988 RMK A01 T00431017  RH  065%=      5-min Rain = 0
KFAS 140155Z 23007KT 04/M02 A2988 RMK A01 T00391017  RH  068%=      5-min Rain = 0
KFAS 140200Z 24005KT 04/M02 A2988 RMK A01 T00401017  RH  067%=      5-min Rain = 0
KFAS 140205Z 24004KT 03/M02 A2988 RMK A01 T00321021  RH  069%=      5-min Rain = 0
KFAS 140210Z 24005KT 04/M02 A2988 RMK A01 T00401017  RH  067%=      5-min Rain = 0
KFAS 140215Z 23004KT 05/M02 A2988 RMK A01 T00461017  RH  064%=      5-min Rain = 0
KFAS 140220Z 21002KT 04/M02 A2988 RMK A01 T00411022  RH  064%=      5-min Rain = 0
KFAS 140225Z 30003KT 03/M03 A2988 RMK A01 T00251027  RH  069%=      5-min Rain = 0
KFAS 140230Z 29005KT 02/M02 A2988 RMK A01 T00201024  RH  073%=      5-min Rain = 0
KFAS 140235Z 28005KT 02/M02 A2988 RMK A01 T00241023  RH  072%=      5-min Rain = 0
KFAS 140240Z 28005KT 02/M02 A2988 RMK A01 T00231022  RH  073%=      5-min Rain = 0
KFAS 140245Z 26006KT 02/M02 A2988 RMK A01 T00201022  RH  075%=      5-min Rain = 0
KFAS 140250Z 25008KT 02/M02 A2988 RMK A01 T00201021  RH  075%=      5-min Rain = 0
KFAS 140255Z 24007KT 02/M02 A2988 RMK A01 T00191021  RH  075%=      5-min Rain = 0
KFAS 140300Z 24005KT 02/M02 A2988 RMK A01 T00241020  RH  074%=      5-min Rain = 0
KFAS 140305Z 23004KT 03/M02 A2987 RMK A01 T00281021  RH  071%=      5-min Rain = 0
KFAS 140310Z 25004KT 02/M03 A2987 RMK A01 T00191026  RH  072%=      5-min Rain = 0
KFAS 140315Z 23004KT 01/M03 A2987 RMK A01 T00101029  RH  076%=      5-min Rain = 0
KFAS 140320Z 21005KT 01/M03 A2986 RMK A01 T00071031  RH  076%=      5-min Rain = 0
KFAS 140325Z 20006KT 01/M03 A2986 RMK A01 T00051028  RH  079%=      5-min Rain = 0
KFAS 140330Z 22009KT 02/M02 A2986 RMK A01 T00161020  RH  078%=      5-min Rain = 0
KFAS 140335Z 22009KT 03/M02 A2986 RMK A01 T00261015  RH  075%=      5-min Rain = 0
KFAS 140340Z 23007KT 03/M02 A2985 RMK A01 T00291016  RH  073%=      5-min Rain = 0
KFAS 140345Z 23008KT 03/M02 A2985 RMK A01 T00261017  RH  074%=      5-min Rain = 0
KFAS 140350Z 22007KT 03/M02 A2985 RMK A01 T00261017  RH  074%=      5-min Rain = 0
KFAS 140355Z 22002KT 02/M02 A2985 RMK A01 T00231016  RH  076%=      5-min Rain = 0
KFAS 140400Z 31002KT 03/M02 A2986 RMK A01 T00261018  RH  074%=      5-min Rain = 0
KFAS 140405Z 26004KT 03/M02 A2986 RMK A01 T00311021  RH  069%=      5-min Rain = 0
KFAS 140410Z 25005KT 04/M02 A2986 RMK A01 T00391021  RH  065%=      5-min Rain = 0
KFAS 140415Z 26006KT 04/M02 A2986 RMK A01 T00351021  RH  067%=      5-min Rain = 0
KFAS 140420Z 26006KT 04/M02 A2986 RMK A01 T00351022  RH  067%=      5-min Rain = 0
KFAS 140425Z 27006KT 03/M02 A2986 RMK A01 T00341022  RH  067%=      5-min Rain = 0
KFAS 140430Z 28006KT 03/M03 A2987 RMK A01 T00271025  RH  069%=      5-min Rain = 0
KFAS 140435Z 27010KT 03/M02 A2987 RMK A01 T00311023  RH  068%=      5-min Rain = 0
KFAS 140440Z 27011KT 04/M02 A2987 RMK A01 T00351024  RH  066%=      5-min Rain = 0
KFAS 140445Z 27010KT 03/M02 A2987 RMK A01 T00321024  RH  067%=      5-min Rain = 0
KFAS 140450Z 27012KT 03/M03 A2987 RMK A01 T00341025  RH  066%=      5-min Rain = 0
KFAS 140455Z 26012KT 04/M03 A2987 RMK A01 T00351026  RH  065%=      5-min Rain = 0
KFAS 140500Z 26012KT 03/M03 A2986 RMK A01 T00331026  RH  066%=      5-min Rain = 0
KFAS 140505Z 25010KT 03/M03 A2985 RMK A01 T00331026  RH  066%=      5-min Rain = 0
KFAS 140510Z 26010KT 04/M03 A2985 RMK A01 T00351026  RH  065%=      5-min Rain = 0
KFAS 140515Z 27010KT 04/M03 A2986 RMK A01 T00361026  RH  064%=      5-min Rain = 0
KFAS 140520Z 28011KT 04/M03 A2987 RMK A01 T00361026  RH  064%=      5-min Rain = 0
KFAS 140525Z 28013KT 04/M03 A2987 RMK A01 T00361025  RH  065%=      5-min Rain = 0
KFAS 140530Z 27009KT 04/M03 A2986 RMK A01 T00401025  RH  063%=      5-min Rain = 0
KFAS 140535Z 25009KT 04/M02 A2985 RMK A01 T00381024  RH  065%=      5-min Rain = 0
KFAS 140540Z 24009KT 04/M02 A2984 RMK A01 T00381023  RH  065%=      5-min Rain = 0
KFAS 140545Z 25009KT 04/M02 A2984 RMK A01 T00391024  RH  064%=      5-min Rain = 0
KFAS 140550Z 25010KT 04/M03 A2985 RMK A01 T00431025  RH  062%=      5-min Rain = 0
KFAS 140555Z 26010KT 04/M02 A2985 RMK A01 T00421024  RH  063%=      5-min Rain = 0

Page generated in 0.0348 seconds.